Crockett, California
Current Conditions -  °F | °C
As of 8:53 AM on Saturday 25 Oct 2014 (Local Time) from KCCR Reporting Station
Broken Clouds Broken Clouds  
Wind Chill: 60°   Ceiling: 3600
Heat Index: 60°   Visibility: 10mi
Dew Point: 56°   Wind: 8mph
Humidity: 86%   Direction: 200°SSW
Pressure: 30"   Gusts: NA
Location:  38.05°N, 122.22°W
Report Text: KCCR 251553Z 20007KT 10SM SCT020 BKN036 16/13 A3000 RMK AO2 SLP143 P0001 T01560133
Loading
Personal Weather Stations






























Interactive Weather Map
Tropical Storm Tracking
New forecast layout! Learn more

10-Day Weather Forecast

Advertisements
Track Severe Weather on mobile